createdAt,value
2019-05-16T00:00:10.597Z,13.18
2019-05-16T00:02:38.997Z,14.35
2019-05-16T00:05:08.482Z,12.88
2019-05-16T00:07:39.063Z,11.55
2019-05-16T00:10:08.431Z,12.93
2019-05-16T00:12:39.838Z,13.08
2019-05-16T00:15:08.974Z,14.85
2019-05-16T00:17:38.535Z,15.10
2019-05-16T00:20:09.212Z,16.73
2019-05-16T00:22:39.431Z,13.28
2019-05-16T00:25:09.026Z,14.68
2019-05-16T00:27:38.588Z,15.13
2019-05-16T00:30:08.863Z,14.03
2019-05-16T00:32:39.091Z,13.93
2019-05-16T00:35:09.424Z,12.33
2019-05-16T00:37:39.178Z,12.58
2019-05-16T00:40:08.347Z,15.75
2019-05-16T00:42:38.939Z,17.23
2019-05-16T00:45:09.196Z,14.30
2019-05-16T00:47:39.012Z,16.07
2019-05-16T00:50:09.024Z,13.93
2019-05-16T00:52:39.317Z,14.70
2019-05-16T00:55:08.480Z,17.05
2019-05-16T00:57:38.962Z,15.98
2019-05-16T01:00:11.047Z,14.70
2019-05-16T01:02:39.831Z,13.22
2019-05-16T01:05:08.895Z,16.25
2019-05-16T01:07:39.136Z,12.78
2019-05-16T01:10:08.965Z,16.57
2019-05-16T01:12:39.123Z,14.58
2019-05-16T01:15:09.669Z,13.88
2019-05-16T01:17:39.078Z,16.62
2019-05-16T01:20:08.688Z,17.23
2019-05-16T01:22:38.534Z,16.52
2019-05-16T01:25:09.342Z,17.17
2019-05-16T01:27:38.749Z,15.45
2019-05-16T01:30:09.129Z,16.20
2019-05-16T01:32:39.085Z,18.17
2019-05-16T01:35:08.450Z,17.75
2019-05-16T01:37:38.398Z,17.82
2019-05-16T01:40:08.506Z,17.30
2019-05-16T01:42:38.522Z,20.40
2019-05-16T01:45:08.468Z,19.95
2019-05-16T01:47:39.290Z,14.60
2019-05-16T01:50:08.807Z,16.40
2019-05-16T01:52:38.260Z,15.85
2019-05-16T01:55:08.198Z,16.02
2019-05-16T01:57:38.879Z,16.82
2019-05-16T02:00:08.357Z,22.77
2019-05-16T02:02:38.470Z,18.02
2019-05-16T02:05:08.612Z,16.52
2019-05-16T02:07:38.739Z,16.85
2019-05-16T02:10:09.296Z,19.15
2019-05-16T02:12:38.591Z,16.02
2019-05-16T02:15:08.201Z,15.18
2019-05-16T02:17:38.517Z,15.18
2019-05-16T02:20:08.919Z,19.07
2019-05-16T02:22:38.910Z,19.30
2019-05-16T02:25:08.681Z,19.60
2019-05-16T02:27:39.695Z,23.07
2019-05-16T02:30:12.027Z,22.60
2019-05-16T02:32:41.385Z,24.95
2019-05-16T02:35:11.777Z,24.37
2019-05-16T02:37:42.236Z,21.87
2019-05-16T02:40:11.955Z,21.68
2019-05-16T02:42:42.010Z,21.15
2019-05-16T02:45:11.978Z,22.05
2019-05-16T02:47:42.410Z,24.37
2019-05-16T02:50:12.232Z,26.25
2019-05-16T02:52:41.777Z,22.00
2019-05-16T02:55:11.875Z,20.40
2019-05-16T02:57:41.724Z,22.10
2019-05-16T03:00:12.508Z,24.80
2019-05-16T03:02:41.908Z,22.62
2019-05-16T03:05:12.230Z,23.70
2019-05-16T03:07:47.291Z,29.20
2019-05-16T03:10:15.181Z,25.65
2019-05-16T03:12:43.899Z,27.32
2019-05-16T03:15:13.046Z,26.30
2019-05-16T03:17:44.255Z,35.03
2019-05-16T03:20:13.493Z,32.05
2019-05-16T03:22:42.909Z,35.60
2019-05-16T03:25:11.970Z,34.92
2019-05-16T03:27:41.456Z,32.65
2019-05-16T03:30:15.810Z,34.40
2019-05-16T03:32:45.318Z,36.20
2019-05-16T03:35:15.259Z,32.05
2019-05-16T03:37:55.049Z,31.50
2019-05-16T03:40:15.238Z,31.95
2019-05-16T03:42:43.643Z,30.05
2019-05-16T03:45:12.609Z,33.48
2019-05-16T03:47:42.645Z,36.93
2019-05-16T03:50:11.965Z,40.23
2019-05-16T03:52:43.526Z,40.80
2019-05-16T03:55:11.221Z,41.80
2019-05-16T03:57:41.458Z,41.73
2019-05-16T04:00:12.057Z,42.35
2019-05-16T04:02:44.783Z,51.40
2019-05-16T04:05:11.622Z,46.05
2019-05-16T04:07:41.799Z,42.65
2019-05-16T04:10:11.144Z,53.50
2019-05-16T04:12:41.837Z,40.78
2019-05-16T04:15:11.919Z,43.73
2019-05-16T04:17:41.469Z,48.73
2019-05-16T04:20:11.748Z,58.08
2019-05-16T04:22:41.077Z,62.65
2019-05-16T04:25:11.274Z,60.05
2019-05-16T04:27:41.653Z,55.43
2019-05-16T04:30:11.596Z,56.68
2019-05-16T04:32:42.000Z,59.98
2019-05-16T04:35:11.674Z,59.50
2019-05-16T04:37:42.175Z,54.40
2019-05-16T04:40:11.908Z,47.35
2019-05-16T04:42:41.894Z,47.43
2019-05-16T04:45:12.203Z,44.05
2019-05-16T04:47:41.600Z,43.68
2019-05-16T04:50:11.859Z,47.60
2019-05-16T04:52:41.874Z,43.50
2019-05-16T04:55:12.232Z,40.43
2019-05-16T04:57:42.106Z,42.83
2019-05-16T05:00:11.823Z,51.23
2019-05-16T05:02:41.746Z,38.35
2019-05-16T05:05:12.602Z,36.80
2019-05-16T05:07:41.449Z,40.45
2019-05-16T05:10:11.571Z,38.28
2019-05-16T05:12:40.913Z,35.15
2019-05-16T05:15:11.418Z,34.43
2019-05-16T05:17:41.332Z,35.28
2019-05-16T05:20:10.907Z,40.17
2019-05-16T05:22:39.910Z,34.10
2019-05-16T05:25:10.895Z,33.13
2019-05-16T05:27:41.270Z,37.40
2019-05-16T05:30:10.917Z,35.83
2019-05-16T05:32:41.276Z,39.67
2019-05-16T05:35:10.906Z,35.68
2019-05-16T05:37:41.069Z,39.85
2019-05-16T05:40:11.018Z,34.65
2019-05-16T05:42:40.379Z,38.13
2019-05-16T05:45:11.205Z,37.67
2019-05-16T05:47:40.193Z,34.70
2019-05-16T05:50:11.194Z,41.90
2019-05-16T05:52:41.119Z,34.45
2019-05-16T05:55:10.690Z,41.28
2019-05-16T05:57:40.273Z,31.80
2019-05-16T06:00:10.078Z,36.10
2019-05-16T06:02:40.346Z,32.15
2019-05-16T06:05:10.683Z,36.38
2019-05-16T06:07:40.536Z,34.18
2019-05-16T06:10:10.600Z,36.77
2019-05-16T06:12:40.911Z,32.80
2019-05-16T06:15:12.628Z,39.10
2019-05-16T06:17:40.419Z,35.15
2019-05-16T06:20:14.409Z,35.35
2019-05-16T06:22:40.306Z,33.38
2019-05-16T06:25:13.442Z,35.23
2019-05-16T06:27:40.633Z,36.65
2019-05-16T06:30:11.489Z,30.70
2019-05-16T06:32:40.025Z,34.75
2019-05-16T06:35:09.734Z,31.23
2019-05-16T06:37:40.642Z,30.80
2019-05-16T06:40:10.973Z,31.55
2019-05-16T06:42:40.226Z,29.87
2019-05-16T06:45:10.369Z,31.27
2019-05-16T06:47:39.628Z,28.25
2019-05-16T06:50:10.990Z,29.85
2019-05-16T06:52:40.845Z,28.02
2019-05-16T06:55:10.067Z,28.07
2019-05-16T06:57:40.860Z,31.30
2019-05-16T07:00:10.873Z,31.12
2019-05-16T07:02:40.864Z,30.62
2019-05-16T07:05:10.234Z,35.63
2019-05-16T07:07:40.427Z,30.30
2019-05-16T07:10:09.877Z,28.23
2019-05-16T07:12:41.095Z,33.55
2019-05-16T07:15:12.285Z,30.10
2019-05-16T07:17:40.538Z,32.80
2019-05-16T07:20:10.553Z,30.00
2019-05-16T07:22:40.658Z,28.42
2019-05-16T07:25:11.072Z,28.75
2019-05-16T07:27:40.099Z,30.72
2019-05-16T07:30:10.802Z,27.62
2019-05-16T07:32:40.510Z,29.70
2019-05-16T07:35:10.393Z,31.73
2019-05-16T07:37:39.958Z,28.75
2019-05-16T07:40:19.023Z,29.37
2019-05-16T07:42:40.422Z,30.88
2019-05-16T07:45:10.653Z,27.50
2019-05-16T07:47:40.297Z,26.90
2019-05-16T07:50:10.476Z,29.42
2019-05-16T07:52:40.228Z,26.45
2019-05-16T07:55:10.772Z,25.95
2019-05-16T07:57:40.044Z,26.48
2019-05-16T08:00:09.991Z,27.05
2019-05-16T08:02:40.268Z,27.98
2019-05-16T08:05:10.279Z,27.37
2019-05-16T08:07:40.718Z,28.70
2019-05-16T08:10:10.920Z,26.37
2019-05-16T08:12:40.811Z,25.85
2019-05-16T08:15:10.247Z,27.75
2019-05-16T08:17:41.364Z,27.62
2019-05-16T08:20:10.849Z,29.12
2019-05-16T08:22:41.494Z,26.57
2019-05-16T08:25:10.798Z,28.20
2019-05-16T08:27:41.274Z,29.65
2019-05-16T08:35:11.441Z,26.87
2019-05-16T08:37:46.091Z,27.58
2019-05-16T08:40:11.438Z,24.67
2019-05-16T08:42:41.575Z,24.82
2019-05-16T08:47:42.552Z,23.20
2019-05-16T08:50:14.663Z,24.10
2019-05-16T08:52:43.859Z,21.57
2019-05-16T08:55:13.651Z,24.23
2019-05-16T08:57:42.158Z,23.42
2019-05-16T09:00:14.709Z,27.95
2019-05-16T09:02:42.347Z,19.90
2019-05-16T09:05:13.669Z,21.20
2019-05-16T09:07:41.384Z,22.40
2019-05-16T09:10:21.222Z,25.10
2019-05-16T09:10:34.820Z,26.97
2019-05-16T09:10:40.735Z,24.70
2019-05-16T09:10:42.922Z,21.25
2019-05-16T09:12:40.644Z,23.15
2019-05-16T09:15:09.290Z,24.15
2019-05-16T09:17:38.543Z,21.87
2019-05-16T09:20:08.938Z,20.77
2019-05-16T09:22:37.987Z,21.10
2019-05-16T09:25:08.142Z,24.55
2019-05-16T09:27:38.088Z,22.27
2019-05-16T09:30:08.700Z,22.00
2019-05-16T09:32:37.291Z,23.32
2019-05-16T09:35:09.677Z,19.25
2019-05-16T09:37:38.365Z,20.60
2019-05-16T09:40:08.302Z,21.40
2019-05-16T09:42:37.399Z,23.05
2019-05-16T09:45:07.484Z,19.75
2019-05-16T09:47:39.085Z,19.55
2019-05-16T09:50:09.290Z,20.65
2019-05-16T09:52:38.345Z,20.97
2019-05-16T09:55:08.035Z,19.23
2019-05-16T09:57:37.657Z,18.55
2019-05-16T10:00:09.342Z,17.73
2019-05-16T10:02:38.235Z,24.55
2019-05-16T10:05:13.261Z,20.27
2019-05-16T10:07:38.851Z,20.25
2019-05-16T10:10:08.458Z,21.55
2019-05-16T10:12:37.235Z,22.50
2019-05-16T10:15:07.651Z,20.72
2019-05-16T10:17:37.026Z,19.65
2019-05-16T10:20:08.134Z,17.90
2019-05-16T10:22:37.417Z,19.92
2019-05-16T10:25:07.389Z,17.75
2019-05-16T10:27:37.440Z,21.37
2019-05-16T10:30:08.470Z,19.65
2019-05-16T10:32:39.733Z,18.40
2019-05-16T10:35:08.853Z,18.80
2019-05-16T10:37:37.630Z,14.73
2019-05-16T10:40:07.586Z,16.97
2019-05-16T10:42:38.109Z,16.42
2019-05-16T10:45:09.058Z,17.52
2019-05-16T10:47:37.604Z,18.65
2019-05-16T10:50:08.202Z,14.53
2019-05-16T10:52:36.952Z,16.52
2019-05-16T10:55:08.356Z,20.75
2019-05-16T10:57:37.956Z,15.78
2019-05-16T11:00:18.107Z,14.53
2019-05-16T11:02:38.387Z,16.25
2019-05-16T11:05:28.730Z,15.20
2019-05-16T11:07:38.099Z,18.12
2019-05-16T11:10:07.941Z,18.00
2019-05-16T11:12:47.779Z,19.73
2019-05-16T11:15:11.404Z,16.75
2019-05-16T11:17:39.545Z,14.00
2019-05-16T11:20:08.342Z,13.68
2019-05-16T11:22:37.238Z,20.50
2019-05-16T11:25:21.388Z,18.32
2019-05-16T11:27:37.778Z,18.07
2019-05-16T11:30:07.725Z,17.42
2019-05-16T11:32:37.499Z,13.85
2019-05-16T11:35:09.371Z,14.75
2019-05-16T11:37:38.093Z,15.48
2019-05-16T11:40:08.412Z,15.90
2019-05-16T11:42:38.048Z,17.85
2019-05-16T11:45:09.692Z,14.15
2019-05-16T11:47:38.550Z,15.10
2019-05-16T11:50:09.477Z,15.78
2019-05-16T11:52:40.571Z,19.05
2019-05-16T11:55:09.268Z,17.48
2019-05-16T11:57:38.154Z,16.37
2019-05-16T12:00:12.587Z,18.98
2019-05-16T12:02:42.865Z,16.50
2019-05-16T12:05:11.765Z,17.17
2019-05-16T12:07:44.206Z,16.25
2019-05-16T12:10:11.701Z,18.32
2019-05-16T12:12:40.404Z,15.45
2019-05-16T12:15:09.774Z,16.17
2019-05-16T12:17:38.699Z,16.70
2019-05-16T12:20:07.976Z,14.30
2019-05-16T12:22:37.710Z,14.95
2019-05-16T12:25:08.251Z,14.53
2019-05-16T12:27:42.237Z,16.93
2019-05-16T12:30:13.758Z,14.63
2019-05-16T12:32:38.907Z,14.33
2019-05-16T12:35:07.599Z,14.00
2019-05-16T12:37:37.191Z,12.78
2019-05-16T12:40:07.821Z,13.35
2019-05-16T12:42:36.676Z,14.28
2019-05-16T12:45:09.011Z,12.75
2019-05-16T12:47:37.803Z,11.28
2019-05-16T12:50:13.798Z,12.03
2019-05-16T12:52:42.285Z,13.27
2019-05-16T12:55:11.275Z,14.20
2019-05-16T12:57:40.010Z,14.68
2019-05-16T13:00:15.404Z,12.20
2019-05-16T13:02:40.970Z,11.50
2019-05-16T13:05:09.707Z,12.58
2019-05-16T13:07:38.181Z,15.65
2019-05-16T13:10:08.346Z,13.00
2019-05-16T13:12:38.023Z,12.60
2019-05-16T13:15:07.427Z,10.30
2019-05-16T13:17:37.172Z,11.00
2019-05-16T13:20:07.726Z,13.40
2019-05-16T13:22:38.373Z,10.95
2019-05-16T13:25:08.140Z,13.22
2019-05-16T13:27:37.267Z,11.53
2019-05-16T13:30:11.071Z,13.10
2019-05-16T13:32:39.729Z,13.48
2019-05-16T13:35:08.306Z,12.10
2019-05-16T13:37:36.707Z,13.08
2019-05-16T13:40:08.874Z,12.95
2019-05-16T13:42:37.299Z,12.15
2019-05-16T13:45:10.241Z,11.97
2019-05-16T13:47:39.037Z,14.55
2019-05-16T13:50:12.126Z,13.18
2019-05-16T13:52:38.474Z,12.73
2019-05-16T13:55:08.173Z,12.40
2019-05-16T13:57:37.362Z,12.00
2019-05-16T14:00:10.171Z,11.22
2019-05-16T14:02:39.154Z,11.18
2019-05-16T14:05:08.607Z,12.70
2019-05-16T14:07:37.726Z,11.38
2019-05-16T14:10:09.569Z,12.37
2019-05-16T14:12:38.480Z,11.63
2019-05-16T14:15:11.116Z,10.93
2019-05-16T14:17:39.515Z,10.55
2019-05-16T14:20:14.455Z,14.23
2019-05-16T14:22:39.996Z,12.00
2019-05-16T14:25:08.934Z,11.45
2019-05-16T14:27:38.136Z,12.40
2019-05-16T14:30:09.061Z,9.80
2019-05-16T14:32:41.920Z,12.07
2019-05-16T14:35:09.155Z,11.63
2019-05-16T14:37:38.292Z,10.72
2019-05-16T14:40:08.459Z,10.40
2019-05-16T14:42:38.516Z,13.62
2019-05-16T14:45:12.744Z,11.43
2019-05-16T14:47:40.276Z,10.50
2019-05-16T14:50:13.929Z,12.58
2019-05-16T14:52:42.173Z,12.65
2019-05-16T14:55:10.951Z,12.58
2019-05-16T14:57:39.426Z,11.22
2019-05-16T15:00:09.554Z,12.90
2019-05-16T15:02:38.754Z,12.03
2019-05-16T15:05:08.185Z,13.88
2019-05-16T15:07:37.591Z,13.30
2019-05-16T15:10:08.097Z,13.10
2019-05-16T15:12:37.614Z,11.97
2019-05-16T15:15:20.217Z,14.13
2019-05-16T15:17:38.460Z,12.63
2019-05-16T15:20:09.790Z,10.82
2019-05-16T15:22:38.722Z,9.28
2019-05-16T15:25:08.365Z,13.50
2019-05-16T15:27:37.293Z,10.80
2019-05-16T15:30:08.721Z,11.20
2019-05-16T15:32:38.568Z,15.13
2019-05-16T15:35:08.052Z,11.10
2019-05-16T15:37:37.423Z,10.95
2019-05-16T15:40:07.669Z,13.60
2019-05-16T15:42:37.323Z,10.43
2019-05-16T15:45:08.088Z,9.63
2019-05-16T15:47:37.741Z,11.30
2019-05-16T15:50:11.155Z,10.53
2019-05-16T15:52:40.028Z,11.57
2019-05-16T15:55:10.403Z,13.32
2019-05-16T15:57:38.894Z,13.15
2019-05-16T16:00:10.711Z,12.58
2019-05-16T16:02:39.561Z,15.45
2019-05-16T16:05:10.013Z,14.40
2019-05-16T16:07:38.446Z,12.18
2019-05-16T16:10:07.998Z,12.78
2019-05-16T16:12:37.720Z,14.03
2019-05-16T16:15:07.745Z,15.43
2019-05-16T16:17:38.175Z,13.20
2019-05-16T16:20:10.342Z,13.03
2019-05-16T16:22:37.928Z,13.88
2019-05-16T16:25:07.465Z,13.00
2019-05-16T16:27:36.183Z,12.47
2019-05-16T16:30:07.074Z,13.72
2019-05-16T16:32:37.952Z,11.00
2019-05-16T16:35:08.112Z,12.80
2019-05-16T16:37:37.741Z,12.23
2019-05-16T16:40:10.990Z,12.80
2019-05-16T16:42:37.719Z,10.43
2019-05-16T16:45:10.083Z,11.85
2019-05-16T16:47:38.879Z,12.47
2019-05-16T16:50:08.424Z,11.95
2019-05-16T16:52:37.930Z,14.63
2019-05-16T16:55:08.038Z,15.30
2019-05-16T16:57:38.341Z,18.50
2019-05-16T17:00:09.011Z,25.52
2019-05-16T17:02:37.772Z,19.02
2019-05-16T17:05:12.548Z,12.30
2019-05-16T17:07:38.554Z,13.45
2019-05-16T17:10:09.074Z,12.73
2019-05-16T17:12:41.336Z,13.08
2019-05-16T17:15:09.364Z,12.53
2019-05-16T17:17:37.889Z,13.22
2019-05-16T17:20:07.992Z,15.20
2019-05-16T17:22:37.766Z,13.65
2019-05-16T17:25:08.539Z,11.93
2019-05-16T17:27:37.629Z,11.57
2019-05-16T17:30:16.965Z,14.43
2019-05-16T17:32:45.445Z,37.25
2019-05-16T17:35:18.766Z,146.75
2019-05-16T17:37:46.785Z,53.80
2019-05-16T17:40:17.569Z,67.92
2019-05-16T17:42:47.552Z,16.77
2019-05-16T17:45:18.098Z,15.40
2019-05-16T17:47:46.934Z,13.38
2019-05-16T17:50:17.213Z,21.87
2019-05-16T17:52:47.695Z,14.73
2019-05-16T17:55:17.525Z,14.55
2019-05-16T17:57:46.281Z,10.98
2019-05-16T18:00:25.184Z,12.05
2019-05-16T18:02:47.022Z,13.45
2019-05-16T18:05:17.016Z,16.77
2019-05-16T18:07:47.387Z,11.53
2019-05-16T18:10:17.001Z,11.45
2019-05-16T18:12:47.735Z,11.48
2019-05-16T18:15:18.625Z,11.18
2019-05-16T18:17:47.035Z,11.18
2019-05-16T18:20:15.878Z,10.58
2019-05-16T18:22:47.009Z,13.98
2019-05-16T18:25:16.387Z,12.05
2019-05-16T18:27:44.898Z,15.50
2019-05-16T18:30:16.450Z,14.35
2019-05-16T18:32:44.282Z,13.05
2019-05-16T18:35:13.497Z,13.83
2019-05-16T18:37:41.889Z,11.05
2019-05-16T18:40:10.944Z,12.25
2019-05-16T18:42:39.349Z,13.85
2019-05-16T18:45:08.520Z,14.43
2019-05-16T18:47:37.824Z,12.30
2019-05-16T18:50:10.297Z,10.88
2019-05-16T18:52:38.703Z,13.80
2019-05-16T18:55:08.689Z,12.53
2019-05-16T18:57:37.977Z,14.28
2019-05-16T19:00:10.915Z,13.43
2019-05-16T19:02:39.086Z,14.15
2019-05-16T19:05:08.487Z,13.60
2019-05-16T19:07:37.164Z,13.78
2019-05-16T19:10:07.381Z,15.32
2019-05-16T19:12:37.275Z,14.90
2019-05-16T19:15:09.866Z,16.55
2019-05-16T19:17:38.435Z,14.15
2019-05-16T19:20:07.790Z,15.80
2019-05-16T19:22:37.191Z,18.23
2019-05-16T19:25:07.207Z,16.70
2019-05-16T19:27:37.089Z,14.13
2019-05-16T19:30:09.478Z,16.50
2019-05-16T19:32:39.626Z,14.05
2019-05-16T19:35:08.831Z,17.27
2019-05-16T19:37:40.427Z,15.32
2019-05-16T19:40:07.898Z,15.30
2019-05-16T19:42:37.080Z,15.53
2019-05-16T19:45:08.518Z,15.00
2019-05-16T19:47:40.944Z,15.45
2019-05-16T19:50:08.910Z,19.27
2019-05-16T19:52:37.661Z,17.00
2019-05-16T19:55:07.729Z,16.77
2019-05-16T19:57:37.390Z,18.70
2019-05-16T20:00:08.592Z,16.95
2019-05-16T20:02:37.488Z,15.48
2019-05-16T20:05:07.529Z,16.30
2019-05-16T20:07:37.251Z,20.05
2019-05-16T20:10:09.509Z,19.48
2019-05-16T20:12:37.763Z,18.00
2019-05-16T20:15:11.652Z,19.25
2019-05-16T20:17:50.957Z,21.35
2019-05-16T20:20:09.256Z,22.42
2019-05-16T20:22:37.698Z,20.60
2019-05-16T20:25:07.424Z,22.10
2019-05-16T20:27:36.847Z,21.40
2019-05-16T20:30:07.125Z,21.60
2019-05-16T20:32:37.171Z,20.02
2019-05-16T20:35:09.287Z,25.90
2019-05-16T20:37:37.704Z,24.32
2019-05-16T20:40:09.223Z,21.70
2019-05-16T20:42:37.187Z,21.05
2019-05-16T20:45:16.896Z,24.95
2019-05-16T20:47:48.347Z,20.88
2019-05-16T20:50:18.580Z,22.42
2019-05-16T20:52:48.675Z,24.80
2019-05-16T20:55:28.188Z,26.35
2019-05-16T20:58:07.734Z,27.15
2019-05-16T21:00:31.008Z,34.63
2019-05-16T21:02:59.692Z,30.95
2019-05-16T21:05:30.257Z,25.68
2019-05-16T21:07:58.761Z,23.12
2019-05-16T21:10:27.531Z,23.67
2019-05-16T21:12:57.430Z,22.95
2019-05-16T21:15:26.393Z,23.87
2019-05-16T21:17:57.253Z,24.75
2019-05-16T21:20:27.034Z,23.15
2019-05-16T21:22:56.444Z,27.25
2019-05-16T21:25:26.384Z,25.52
2019-05-16T21:27:57.104Z,28.70
2019-05-16T21:30:30.459Z,31.00
2019-05-16T21:33:02.006Z,30.90
2019-05-16T21:35:37.379Z,29.10
2019-05-16T21:38:08.728Z,31.73
2019-05-16T21:40:37.885Z,29.60
2019-05-16T21:43:07.517Z,27.32
2019-05-16T21:45:37.168Z,29.48
2019-05-16T21:48:09.926Z,30.77
2019-05-16T21:50:40.863Z,29.90
2019-05-16T21:53:13.454Z,29.52
2019-05-16T21:55:50.717Z,32.15
2019-05-16T21:58:19.306Z,26.93
2019-05-16T22:00:53.863Z,30.62
2019-05-16T22:03:26.973Z,31.35
2019-05-16T22:05:57.579Z,26.00
2019-05-16T22:08:25.935Z,26.60
2019-05-16T22:10:57.727Z,29.45
2019-05-16T22:13:26.457Z,28.95
2019-05-16T22:15:56.908Z,24.12
2019-05-16T22:18:25.440Z,25.43
2019-05-16T22:20:56.895Z,24.85
2019-05-16T22:23:27.751Z,27.48
2019-05-16T22:25:57.073Z,28.62
2019-05-16T22:28:27.445Z,28.17
2019-05-16T22:30:58.569Z,28.15
2019-05-16T22:33:29.802Z,36.30
2019-05-16T22:35:58.442Z,36.40
2019-05-16T22:38:28.866Z,29.60
2019-05-16T22:40:58.987Z,28.47
2019-05-16T22:43:27.596Z,30.68
2019-05-16T22:45:59.288Z,26.95
2019-05-16T22:48:29.462Z,30.45
2019-05-16T22:50:57.950Z,29.25
2019-05-16T22:53:27.284Z,29.30
2019-05-16T22:56:00.849Z,29.37
2019-05-16T22:58:34.279Z,34.75
2019-05-16T23:01:03.634Z,31.52
2019-05-16T23:03:41.202Z,29.32
2019-05-16T23:06:09.771Z,32.93
2019-05-16T23:08:38.421Z,30.10
2019-05-16T23:11:07.458Z,32.30
2019-05-16T23:13:37.900Z,30.43
2019-05-16T23:16:06.874Z,29.40
2019-05-16T23:18:37.446Z,32.73
2019-05-16T23:21:06.504Z,32.67
2019-05-16T23:23:37.996Z,37.53
2019-05-16T23:26:06.649Z,33.40
2019-05-16T23:28:36.832Z,33.95
2019-05-16T23:31:11.499Z,32.42
2019-05-16T23:33:46.986Z,35.20
2019-05-16T23:36:17.481Z,33.07
2019-05-16T23:38:50.701Z,34.45
2019-05-16T23:41:19.344Z,31.52
2019-05-16T23:43:47.973Z,29.35
2019-05-16T23:46:19.563Z,32.67
2019-05-16T23:48:52.832Z,30.95
2019-05-16T23:51:21.392Z,31.02
2019-05-16T23:53:50.003Z,31.75
2019-05-16T23:56:18.455Z,34.05
2019-05-16T23:58:47.692Z,37.85
